sensor_id;sensor_type;location;lat;lon;timestamp;pressure;altitude;pressure_sealevel;temperature
76007;BMP280;64699;0.000;0.000;2022-12-18T00:01:40;101843.41;;;20.05
76007;BMP280;64699;0.000;0.000;2022-12-18T00:04:06;101841.41;;;20.06
76007;BMP280;64699;0.000;0.000;2022-12-18T00:06:33;101850.41;;;20.06
76007;BMP280;64699;0.000;0.000;2022-12-18T00:08:59;101857.97;;;20.06
76007;BMP280;64699;0.000;0.000;2022-12-18T00:11:27;101862.94;;;20.07
76007;BMP280;64699;0.000;0.000;2022-12-18T00:13:53;101869.22;;;20.08
76007;BMP280;64699;0.000;0.000;2022-12-18T00:16:20;101876.72;;;20.07
76007;BMP280;64699;0.000;0.000;2022-12-18T00:18:47;101869.97;;;20.08
76007;BMP280;64699;0.000;0.000;2022-12-18T00:21:13;101860.94;;;20.08
76007;BMP280;64699;0.000;0.000;2022-12-18T00:23:40;101862.44;;;20.09
76007;BMP280;64699;0.000;0.000;2022-12-18T00:26:06;101869.47;;;20.10
76007;BMP280;64699;0.000;0.000;2022-12-18T00:28:32;101875.47;;;20.08
76007;BMP280;64699;0.000;0.000;2022-12-18T00:31:01;101881.00;;;20.08
76007;BMP280;64699;0.000;0.000;2022-12-18T00:33:27;101878.78;;;20.07
76007;BMP280;64699;0.000;0.000;2022-12-18T00:35:53;101883.53;;;20.06
76007;BMP280;64699;0.000;0.000;2022-12-18T00:38:18;101890.53;;;20.07
76007;BMP280;64699;0.000;0.000;2022-12-18T00:40:44;101891.81;;;20.06
76007;BMP280;64699;0.000;0.000;2022-12-18T00:43:10;101887.56;;;20.05
76007;BMP280;64699;0.000;0.000;2022-12-18T00:45:36;101896.31;;;20.09
76007;BMP280;64699;0.000;0.000;2022-12-18T00:48:02;101898.06;;;20.12
76007;BMP280;64699;0.000;0.000;2022-12-18T00:50:27;101896.81;;;20.13
76007;BMP280;64699;0.000;0.000;2022-12-18T00:52:53;101896.31;;;20.15
76007;BMP280;64699;0.000;0.000;2022-12-18T00:55:18;101908.09;;;20.15
76007;BMP280;64699;0.000;0.000;2022-12-18T00:57:44;101904.06;;;20.22
76007;BMP280;64699;0.000;0.000;2022-12-18T01:00:11;101902.31;;;20.19
76007;BMP280;64699;0.000;0.000;2022-12-18T01:02:37;101903.81;;;20.20
76007;BMP280;64699;0.000;0.000;2022-12-18T01:05:03;101908.06;;;20.26
76007;BMP280;64699;0.000;0.000;2022-12-18T01:07:28;101916.81;;;20.30
76007;BMP280;64699;0.000;0.000;2022-12-18T01:09:53;101914.06;;;20.30
76007;BMP280;64699;0.000;0.000;2022-12-18T01:12:19;101919.56;;;20.30
76007;BMP280;64699;0.000;0.000;2022-12-18T01:14:44;101921.34;;;20.28
76007;BMP280;64699;0.000;0.000;2022-12-18T01:17:10;101931.66;;;20.27
76007;BMP280;64699;0.000;0.000;2022-12-18T01:19:35;101929.88;;;20.24
76007;BMP280;64699;0.000;0.000;2022-12-18T01:22:01;101925.63;;;20.23
76007;BMP280;64699;0.000;0.000;2022-12-18T01:24:27;101931.16;;;20.23
76007;BMP280;64699;0.000;0.000;2022-12-18T01:26:52;101939.44;;;20.23
76007;BMP280;64699;0.000;0.000;2022-12-18T01:29:18;101933.66;;;20.21
76007;BMP280;64699;0.000;0.000;2022-12-18T01:31:43;101944.47;;;20.19
76007;BMP280;64699;0.000;0.000;2022-12-18T01:34:09;101940.94;;;20.19
76007;BMP280;64699;0.000;0.000;2022-12-18T01:36:36;101952.00;;;20.19
76007;BMP280;64699;0.000;0.000;2022-12-18T01:39:03;101951.25;;;20.18
76007;BMP280;64699;0.000;0.000;2022-12-18T01:41:29;101960.00;;;20.17
76007;BMP280;64699;0.000;0.000;2022-12-18T01:47:00;101973.03;;;20.16
76007;BMP280;64699;0.000;0.000;2022-12-18T01:49:25;101983.13;;;20.14
76007;BMP280;64699;0.000;0.000;2022-12-18T01:51:51;101982.34;;;20.13
76007;BMP280;64699;0.000;0.000;2022-12-18T01:54:17;101978.34;;;20.14
76007;BMP280;64699;0.000;0.000;2022-12-18T01:56:43;101982.34;;;20.13
76007;BMP280;64699;0.000;0.000;2022-12-18T01:59:08;101980.06;;;20.12
76007;BMP280;64699;0.000;0.000;2022-12-18T02:01:35;101979.38;;;20.11
76007;BMP280;64699;0.000;0.000;2022-12-18T02:07:03;101985.59;;;20.12
76007;BMP280;64699;0.000;0.000;2022-12-18T02:09:37;101987.41;;;20.09
76007;BMP280;64699;0.000;0.000;2022-12-18T02:12:23;101990.41;;;20.11
76007;BMP280;64699;0.000;0.000;2022-12-18T02:14:52;101994.41;;;20.10
76007;BMP280;64699;0.000;0.000;2022-12-18T02:17:21;102002.41;;;20.08
76007;BMP280;64699;0.000;0.000;2022-12-18T02:20:03;102009.72;;;20.11
76007;BMP280;64699;0.000;0.000;2022-12-18T02:22:45;102010.97;;;20.10
76007;BMP280;64699;0.000;0.000;2022-12-18T02:27:58;102019.75;;;20.09
76007;BMP280;64699;0.000;0.000;2022-12-18T02:30:25;102025.25;;;20.09
76007;BMP280;64699;0.000;0.000;2022-12-18T02:32:52;102028.28;;;20.11
76007;BMP280;64699;0.000;0.000;2022-12-18T02:35:25;102022.03;;;20.10
76007;BMP280;64699;0.000;0.000;2022-12-18T02:37:51;102027.53;;;20.10
76007;BMP280;64699;0.000;0.000;2022-12-18T02:40:22;102031.03;;;20.11
76007;BMP280;64699;0.000;0.000;2022-12-18T02:42:48;102037.81;;;20.10
76007;BMP280;64699;0.000;0.000;2022-12-18T02:45:14;102039.84;;;20.09
76007;BMP280;64699;0.000;0.000;2022-12-18T02:47:40;102040.56;;;20.10
76007;BMP280;64699;0.000;0.000;2022-12-18T03:00:12;102053.63;;;20.09
76007;BMP280;64699;0.000;0.000;2022-12-18T03:02:39;102053.88;;;20.11
76007;BMP280;64699;0.000;0.000;2022-12-18T03:05:08;102059.63;;;20.13
76007;BMP280;64699;0.000;0.000;2022-12-18T03:07:42;102056.38;;;20.15
76007;BMP280;64699;0.000;0.000;2022-12-18T03:10:09;102064.13;;;20.16
76007;BMP280;64699;0.000;0.000;2022-12-18T03:12:37;102068.16;;;20.15
76007;BMP280;64699;0.000;0.000;2022-12-18T03:18:25;102086.97;;;20.17
76007;BMP280;64699;0.000;0.000;2022-12-18T03:20:49;102079.22;;;20.15
76007;BMP280;64699;0.000;0.000;2022-12-18T03:23:17;102091.00;;;20.16
76007;BMP280;64699;0.000;0.000;2022-12-18T03:25:44;102087.50;;;20.15
76007;BMP280;64699;0.000;0.000;2022-12-18T03:28:12;102094.00;;;20.18
76007;BMP280;64699;0.000;0.000;2022-12-18T03:30:39;102089.25;;;20.18
76007;BMP280;64699;0.000;0.000;2022-12-18T03:33:10;102090.00;;;20.19
76007;BMP280;64699;0.000;0.000;2022-12-18T03:35:39;102103.28;;;20.20
76007;BMP280;64699;0.000;0.000;2022-12-18T03:38:05;102111.34;;;20.18
76007;BMP280;64699;0.000;0.000;2022-12-18T03:43:10;102111.34;;;20.18
76007;BMP280;64699;0.000;0.000;2022-12-18T03:45:37;102116.09;;;20.18
76007;BMP280;64699;0.000;0.000;2022-12-18T03:48:07;102117.84;;;20.15
76007;BMP280;64699;0.000;0.000;2022-12-18T03:50:49;102126.88;;;20.16
76007;BMP280;64699;0.000;0.000;2022-12-18T03:55:40;102134.41;;;20.15
76007;BMP280;64699;0.000;0.000;2022-12-18T03:58:06;102125.63;;;20.17
76007;BMP280;64699;0.000;0.000;2022-12-18T04:00:33;102128.16;;;20.15
76007;BMP280;64699;0.000;0.000;2022-12-18T04:02:59;102129.63;;;20.16
76007;BMP280;64699;0.000;0.000;2022-12-18T04:05:26;102131.91;;;20.17
76007;BMP280;64699;0.000;0.000;2022-12-18T04:07:52;102134.41;;;20.15
76007;BMP280;64699;0.000;0.000;2022-12-18T04:10:19;102150.72;;;20.19
76007;BMP280;64699;0.000;0.000;2022-12-18T04:12:44;102140.94;;;20.18
76007;BMP280;64699;0.000;0.000;2022-12-18T04:15:10;102148.47;;;20.17
76007;BMP280;64699;0.000;0.000;2022-12-18T04:17:36;102139.94;;;20.15
76007;BMP280;64699;0.000;0.000;2022-12-18T04:20:02;102140.66;;;20.16
76007;BMP280;64699;0.000;0.000;2022-12-18T04:22:28;102146.19;;;20.16
76007;BMP280;64699;0.000;0.000;2022-12-18T04:24:53;102160.25;;;20.18
76007;BMP280;64699;0.000;0.000;2022-12-18T04:27:18;102168.28;;;20.16
76007;BMP280;64699;0.000;0.000;2022-12-18T04:29:44;102171.78;;;20.16
76007;BMP280;64699;0.000;0.000;2022-12-18T04:32:09;102173.03;;;20.15
76007;BMP280;64699;0.000;0.000;2022-12-18T04:34:35;102169.00;;;20.16
76007;BMP280;64699;0.000;0.000;2022-12-18T04:37:00;102185.09;;;20.18
76007;BMP280;64699;0.000;0.000;2022-12-18T04:39:26;102191.09;;;20.16
76007;BMP280;64699;0.000;0.000;2022-12-18T04:41:51;102188.88;;;20.15
76007;BMP280;64699;0.000;0.000;2022-12-18T04:44:17;102195.63;;;20.14
76007;BMP280;64699;0.000;0.000;2022-12-18T04:46:42;102204.66;;;20.14
76007;BMP280;64699;0.000;0.000;2022-12-18T04:49:08;102196.13;;;20.12
76007;BMP280;64699;0.000;0.000;2022-12-18T04:51:36;102201.16;;;20.14
76007;BMP280;64699;0.000;0.000;2022-12-18T04:54:01;102200.88;;;20.12
76007;BMP280;64699;0.000;0.000;2022-12-18T04:56:27;102196.63;;;20.11
76007;BMP280;64699;0.000;0.000;2022-12-18T04:58:52;102197.41;;;20.11
76007;BMP280;64699;0.000;0.000;2022-12-18T05:01:18;102203.16;;;20.13
76007;BMP280;64699;0.000;0.000;2022-12-18T05:03:43;102207.91;;;20.13
76007;BMP280;64699;0.000;0.000;2022-12-18T05:06:09;102218.47;;;20.14
76007;BMP280;64699;0.000;0.000;2022-12-18T05:08:34;102210.19;;;20.14
76007;BMP280;64699;0.000;0.000;2022-12-18T05:11:03;102221.22;;;20.14
76007;BMP280;64699;0.000;0.000;2022-12-18T05:13:29;102231.53;;;20.14
76007;BMP280;64699;0.000;0.000;2022-12-18T05:15:56;102241.78;;;20.13
76007;BMP280;64699;0.000;0.000;2022-12-18T05:18:22;102238.25;;;20.13
76007;BMP280;64699;0.000;0.000;2022-12-18T05:20:48;102247.31;;;20.13
76007;BMP280;64699;0.000;0.000;2022-12-18T05:23:14;102248.81;;;20.14
76007;BMP280;64699;0.000;0.000;2022-12-18T05:25:39;102247.31;;;20.13
76007;BMP280;64699;0.000;0.000;2022-12-18T05:28:05;102246.06;;;20.14
76007;BMP280;64699;0.000;0.000;2022-12-18T05:30:30;102249.06;;;20.16
76007;BMP280;64699;0.000;0.000;2022-12-18T05:32:56;102262.13;;;20.16
76007;BMP280;64699;0.000;0.000;2022-12-18T05:35:21;102253.09;;;20.15
76007;BMP280;64699;0.000;0.000;2022-12-18T05:37:47;102261.09;;;20.13
76007;BMP280;64699;0.000;0.000;2022-12-18T05:40:12;102267.41;;;20.14
76007;BMP280;64699;0.000;0.000;2022-12-18T05:42:38;102271.38;;;20.13
76007;BMP280;64699;0.000;0.000;2022-12-18T05:45:03;102276.16;;;20.12
76007;BMP280;64699;0.000;0.000;2022-12-18T05:47:29;102284.44;;;20.12
76007;BMP280;64699;0.000;0.000;2022-12-18T05:49:55;102275.94;;;20.10
76007;BMP280;64699;0.000;0.000;2022-12-18T05:52:20;102279.94;;;20.09
76007;BMP280;64699;0.000;0.000;2022-12-18T05:54:46;102288.94;;;20.10
76007;BMP280;64699;0.000;0.000;2022-12-18T05:57:11;102294.94;;;20.08
76007;BMP280;64699;0.000;0.000;2022-12-18T05:59:37;102288.69;;;20.08
76007;BMP280;64699;0.000;0.000;2022-12-18T06:02:03;102288.69;;;20.08
76007;BMP280;64699;0.000;0.000;2022-12-18T06:04:28;102296.19;;;20.07
76007;BMP280;64699;0.000;0.000;2022-12-18T06:06:56;102305.25;;;20.08
76007;BMP280;64699;0.000;0.000;2022-12-18T06:09:22;102311.50;;;20.08
76007;BMP280;64699;0.000;0.000;2022-12-18T06:11:47;102312.75;;;20.07
76007;BMP280;64699;0.000;0.000;2022-12-18T06:14:13;102313.06;;;20.09
76007;BMP280;64699;0.000;0.000;2022-12-18T06:16:38;102322.56;;;20.08
76007;BMP280;64699;0.000;0.000;2022-12-18T06:19:04;102330.09;;;20.08
76007;BMP280;64699;0.000;0.000;2022-12-18T06:21:31;102330.09;;;20.08
76007;BMP280;64699;0.000;0.000;2022-12-18T06:23:57;102336.09;;;20.06
76007;BMP280;64699;0.000;0.000;2022-12-18T06:26:23;102330.59;;;20.06
76007;BMP280;64699;0.000;0.000;2022-12-18T06:28:48;102345.88;;;20.07
76007;BMP280;64699;0.000;0.000;2022-12-18T06:31:14;102344.63;;;20.08
76007;BMP280;64699;0.000;0.000;2022-12-18T06:33:40;102356.91;;;20.07
76007;BMP280;64699;0.000;0.000;2022-12-18T06:36:07;102358.44;;;20.08
76007;BMP280;64699;0.000;0.000;2022-12-18T06:38:33;102366.72;;;20.08
76007;BMP280;64699;0.000;0.000;2022-12-18T06:40:59;102372.00;;;20.06
76007;BMP280;64699;0.000;0.000;2022-12-18T06:43:24;102374.25;;;20.08
76007;BMP280;64699;0.000;0.000;2022-12-18T06:45:49;102377.00;;;20.08
76007;BMP280;64699;0.000;0.000;2022-12-18T06:48:20;102381.28;;;20.09
76007;BMP280;64699;0.000;0.000;2022-12-18T06:50:45;102390.34;;;20.09
76007;BMP280;64699;0.000;0.000;2022-12-18T06:53:11;102389.56;;;20.09
76007;BMP280;64699;0.000;0.000;2022-12-18T06:55:37;102394.31;;;20.08
76007;BMP280;64699;0.000;0.000;2022-12-18T06:58:02;102401.38;;;20.09
76007;BMP280;64699;0.000;0.000;2022-12-18T07:00:28;102404.13;;;20.09
76007;BMP280;64699;0.000;0.000;2022-12-18T07:02:53;102407.63;;;20.10
76007;BMP280;64699;0.000;0.000;2022-12-18T07:05:19;102413.94;;;20.10
76007;BMP280;64699;0.000;0.000;2022-12-18T07:07:44;102409.91;;;20.11
76007;BMP280;64699;0.000;0.000;2022-12-18T07:10:10;102419.69;;;20.12
76007;BMP280;64699;0.000;0.000;2022-12-18T07:12:35;102417.66;;;20.13
76007;BMP280;64699;0.000;0.000;2022-12-18T07:15:01;102418.91;;;20.12
76007;BMP280;64699;0.000;0.000;2022-12-18T07:17:26;102430.72;;;20.12
76007;BMP280;64699;0.000;0.000;2022-12-18T07:19:52;102435.00;;;20.13
76007;BMP280;64699;0.000;0.000;2022-12-18T07:22:17;102445.28;;;20.13
76007;BMP280;64699;0.000;0.000;2022-12-18T07:24:43;102444.78;;;20.14
76007;BMP280;64699;0.000;0.000;2022-12-18T07:27:08;102451.56;;;20.13
76007;BMP280;64699;0.000;0.000;2022-12-18T07:29:34;102457.84;;;20.14
76007;BMP280;64699;0.000;0.000;2022-12-18T07:31:59;102451.56;;;20.13
76007;BMP280;64699;0.000;0.000;2022-12-18T07:34:25;102453.06;;;20.14
76007;BMP280;64699;0.000;0.000;2022-12-18T07:36:50;102454.31;;;20.13
76007;BMP280;64699;0.000;0.000;2022-12-18T07:39:16;102455.56;;;20.12
76007;BMP280;64699;0.000;0.000;2022-12-18T07:41:41;102448.56;;;20.11
76007;BMP280;64699;0.000;0.000;2022-12-18T07:44:11;102454.56;;;20.10
76007;BMP280;64699;0.000;0.000;2022-12-18T07:46:37;102459.31;;;20.09
76007;BMP280;64699;0.000;0.000;2022-12-18T07:49:02;102458.09;;;20.10
76007;BMP280;64699;0.000;0.000;2022-12-18T07:51:28;102467.59;;;20.09
76007;BMP280;64699;0.000;0.000;2022-12-18T07:53:53;102469.88;;;20.11
76007;BMP280;64699;0.000;0.000;2022-12-18T07:56:19;102469.13;;;20.10
76007;BMP280;64699;0.000;0.000;2022-12-18T07:58:45;102473.41;;;20.11
76007;BMP280;64699;0.000;0.000;2022-12-18T08:01:13;102485.94;;;20.12
76007;BMP280;64699;0.000;0.000;2022-12-18T08:03:39;102487.91;;;20.12
76007;BMP280;64699;0.000;0.000;2022-12-18T08:06:06;102488.44;;;20.10
76007;BMP280;64699;0.000;0.000;2022-12-18T08:08:33;102489.69;;;20.09
76007;BMP280;64699;0.000;0.000;2022-12-18T08:10:58;102493.97;;;20.10
76007;BMP280;64699;0.000;0.000;2022-12-18T08:13:24;102497.47;;;20.11
76007;BMP280;64699;0.000;0.000;2022-12-18T08:15:57;102498.97;;;20.12
76007;BMP280;64699;0.000;0.000;2022-12-18T08:18:23;102506.53;;;20.11
76007;BMP280;64699;0.000;0.000;2022-12-18T08:20:49;102507.78;;;20.10
76007;BMP280;64699;0.000;0.000;2022-12-18T08:23:14;102509.00;;;20.09
76007;BMP280;64699;0.000;0.000;2022-12-18T08:25:40;102512.50;;;20.10
76007;BMP280;64699;0.000;0.000;2022-12-18T08:28:06;102528.34;;;20.09
76007;BMP280;64699;0.000;0.000;2022-12-18T08:30:32;102525.56;;;20.09
76007;BMP280;64699;0.000;0.000;2022-12-18T08:32:58;102537.81;;;20.08
76007;BMP280;64699;0.000;0.000;2022-12-18T08:35:23;102542.59;;;20.08
76007;BMP280;64699;0.000;0.000;2022-12-18T08:37:49;102545.63;;;20.10
76007;BMP280;64699;0.000;0.000;2022-12-18T08:40:15;102547.69;;;20.15
76007;BMP280;64699;0.000;0.000;2022-12-18T08:42:40;102543.72;;;20.21
76007;BMP280;64699;0.000;0.000;2022-12-18T08:45:24;102550.28;;;20.29
76007;BMP280;64699;0.000;0.000;2022-12-18T08:47:50;102550.31;;;20.35
76007;BMP280;64699;0.000;0.000;2022-12-18T08:50:15;102544.34;;;20.42
76007;BMP280;64699;0.000;0.000;2022-12-18T08:52:41;102544.09;;;20.45
76007;BMP280;64699;0.000;0.000;2022-12-18T08:55:07;102550.16;;;20.49
76007;BMP280;64699;0.000;0.000;2022-12-18T08:57:33;102546.16;;;20.50
76007;BMP280;64699;0.000;0.000;2022-12-18T08:59:58;102551.16;;;20.52
76007;BMP280;64699;0.000;0.000;2022-12-18T09:02:24;102553.19;;;20.51
76007;BMP280;64699;0.000;0.000;2022-12-18T09:04:50;102556.19;;;20.53
76007;BMP280;64699;0.000;0.000;2022-12-18T09:07:15;102558.22;;;20.53
76007;BMP280;64699;0.000;0.000;2022-12-18T09:09:41;102557.19;;;20.50
76007;BMP280;64699;0.000;0.000;2022-12-18T09:12:07;102579.28;;;20.50
76007;BMP280;64699;0.000;0.000;2022-12-18T09:14:32;102573.78;;;20.50
76007;BMP280;64699;0.000;0.000;2022-12-18T09:16:58;102580.53;;;20.49
76007;BMP280;64699;0.000;0.000;2022-12-18T09:19:24;102578.75;;;20.46
76007;BMP280;64699;0.000;0.000;2022-12-18T09:21:49;102591.31;;;20.47
76007;BMP280;64699;0.000;0.000;2022-12-18T09:24:15;102587.34;;;20.48
76007;BMP280;64699;0.000;0.000;2022-12-18T09:26:41;102590.09;;;20.48
76007;BMP280;64699;0.000;0.000;2022-12-18T09:29:06;102588.28;;;20.45
76007;BMP280;64699;0.000;0.000;2022-12-18T09:31:33;102580.00;;;20.45
76007;BMP280;64699;0.000;0.000;2022-12-18T09:33:59;102589.06;;;20.46
76007;BMP280;64699;0.000;0.000;2022-12-18T09:36:24;102582.75;;;20.45
76007;BMP280;64699;0.000;0.000;2022-12-18T09:38:50;102580.00;;;20.45
76007;BMP280;64699;0.000;0.000;2022-12-18T09:44:05;102585.28;;;20.43
76007;BMP280;64699;0.000;0.000;2022-12-18T09:46:36;102583.00;;;20.42
76007;BMP280;64699;0.000;0.000;2022-12-18T09:49:05;102576.72;;;20.41
76007;BMP280;64699;0.000;0.000;2022-12-18T09:54:26;102589.53;;;20.39
76007;BMP280;64699;0.000;0.000;2022-12-18T09:56:52;102589.28;;;20.42
76007;BMP280;64699;0.000;0.000;2022-12-18T09:59:20;102591.81;;;20.46
76007;BMP280;64699;0.000;0.000;2022-12-18T10:01:46;102587.34;;;20.48
76007;BMP280;64699;0.000;0.000;2022-12-18T10:04:11;102584.81;;;20.50
76007;BMP280;64699;0.000;0.000;2022-12-18T10:16:59;102582.06;;;20.50
76007;BMP280;64699;0.000;0.000;2022-12-18T10:19:38;102588.81;;;20.49
76007;BMP280;64699;0.000;0.000;2022-12-18T10:24:37;102580.28;;;20.47
76007;BMP280;64699;0.000;0.000;2022-12-18T10:27:37;102598.59;;;20.45
76007;BMP280;64699;0.000;0.000;2022-12-18T10:29:56;102606.13;;;20.44
76007;BMP280;64699;0.000;0.000;2022-12-18T10:32:23;102608.91;;;20.44
76007;BMP280;64699;0.000;0.000;2022-12-18T10:34:52;102606.59;;;20.43
76007;BMP280;64699;0.000;0.000;2022-12-18T10:37:18;102611.13;;;20.40
76007;BMP280;64699;0.000;0.000;2022-12-18T10:39:46;102612.59;;;20.36
76007;BMP280;64699;0.000;0.000;2022-12-18T10:42:18;102615.84;;;20.34
76007;BMP280;64699;0.000;0.000;2022-12-18T10:44:44;102610.56;;;20.31
76007;BMP280;64699;0.000;0.000;2022-12-18T10:47:14;102602.00;;;20.29
76007;BMP280;64699;0.000;0.000;2022-12-18T10:49:47;102606.75;;;20.28
76007;BMP280;64699;0.000;0.000;2022-12-18T10:52:23;102596.72;;;20.25
76007;BMP280;64699;0.000;0.000;2022-12-18T10:54:54;102598.22;;;20.26
76007;BMP280;64699;0.000;0.000;2022-12-18T10:57:36;102610.50;;;20.25
76007;BMP280;64699;0.000;0.000;2022-12-18T11:02:47;102610.22;;;20.23
76007;BMP280;64699;0.000;0.000;2022-12-18T11:05:23;102614.25;;;20.22
76007;BMP280;64699;0.000;0.000;2022-12-18T11:07:50;102618.25;;;20.21
76007;BMP280;64699;0.000;0.000;2022-12-18T11:10:17;102618.75;;;20.20
76007;BMP280;64699;0.000;0.000;2022-12-18T11:12:43;102615.25;;;20.19
76007;BMP280;64699;0.000;0.000;2022-12-18T11:15:21;102616.72;;;20.20
76007;BMP280;64699;0.000;0.000;2022-12-18T11:17:49;102621.22;;;20.18
76007;BMP280;64699;0.000;0.000;2022-12-18T11:20:23;102630.28;;;20.18
76007;BMP280;64699;0.000;0.000;2022-12-18T11:22:58;102638.56;;;20.18
76007;BMP280;64699;0.000;0.000;2022-12-18T11:25:25;102628.78;;;20.17
76007;BMP280;64699;0.000;0.000;2022-12-18T11:28:04;102633.28;;;20.15
76007;BMP280;64699;0.000;0.000;2022-12-18T11:30:31;102639.53;;;20.15
76007;BMP280;64699;0.000;0.000;2022-12-18T11:33:04;102635.25;;;20.14
76007;BMP280;64699;0.000;0.000;2022-12-18T11:35:42;102640.78;;;20.14
76007;BMP280;64699;0.000;0.000;2022-12-18T11:38:17;102625.47;;;20.13
76007;BMP280;64699;0.000;0.000;2022-12-18T11:40:45;102625.94;;;20.12
76007;BMP280;64699;0.000;0.000;2022-12-18T11:43:14;102637.75;;;20.12
76007;BMP280;64699;0.000;0.000;2022-12-18T11:45:55;102629.47;;;20.12
76007;BMP280;64699;0.000;0.000;2022-12-18T11:48:27;102628.22;;;20.13
76007;BMP280;64699;0.000;0.000;2022-12-18T11:50:54;102634.75;;;20.10
76007;BMP280;64699;0.000;0.000;2022-12-18T11:53:21;102637.75;;;20.12
76007;BMP280;64699;0.000;0.000;2022-12-18T11:55:56;102636.25;;;20.11
76007;BMP280;64699;0.000;0.000;2022-12-18T12:01:06;102622.94;;;20.10
76007;BMP280;64699;0.000;0.000;2022-12-18T12:06:22;102639.00;;;20.11
76007;BMP280;64699;0.000;0.000;2022-12-18T12:09:09;102640.25;;;20.10
76007;BMP280;64699;0.000;0.000;2022-12-18T12:14:20;102645.78;;;20.10
76007;BMP280;64699;0.000;0.000;2022-12-18T12:19:42;102651.31;;;20.10
76007;BMP280;64699;0.000;0.000;2022-12-18T12:22:20;102651.31;;;20.10
76007;BMP280;64699;0.000;0.000;2022-12-18T12:30:05;102669.38;;;20.11
76007;BMP280;64699;0.000;0.000;2022-12-18T12:37:59;102658.81;;;20.10
76007;BMP280;64699;0.000;0.000;2022-12-18T12:40:27;102663.59;;;20.09
76007;BMP280;64699;0.000;0.000;2022-12-18T12:42:54;102664.78;;;20.08
76007;BMP280;64699;0.000;0.000;2022-12-18T12:48:05;102667.56;;;20.08
76007;BMP280;64699;0.000;0.000;2022-12-18T12:50:33;102682.91;;;20.09
76007;BMP280;64699;0.000;0.000;2022-12-18T12:52:59;102695.16;;;20.08
76007;BMP280;64699;0.000;0.000;2022-12-18T12:55:27;102696.41;;;20.07
76007;BMP280;64699;0.000;0.000;2022-12-18T13:00:19;102698.97;;;20.11
76007;BMP280;64699;0.000;0.000;2022-12-18T13:02:52;102709.50;;;20.12
76007;BMP280;64699;0.000;0.000;2022-12-18T13:07:47;102692.19;;;20.12
76007;BMP280;64699;0.000;0.000;2022-12-18T13:15:23;102707.03;;;20.14
76007;BMP280;64699;0.000;0.000;2022-12-18T13:18:02;102718.06;;;20.14
76007;BMP280;64699;0.000;0.000;2022-12-18T13:20:32;102715.03;;;20.12
76007;BMP280;64699;0.000;0.000;2022-12-18T13:22:58;102722.06;;;20.13
76007;BMP280;64699;0.000;0.000;2022-12-18T13:25:31;102722.06;;;20.13
76007;BMP280;64699;0.000;0.000;2022-12-18T13:28:03;102726.06;;;20.12
76007;BMP280;64699;0.000;0.000;2022-12-18T13:38:22;102730.81;;;20.12
76007;BMP280;64699;0.000;0.000;2022-12-18T13:48:17;102739.31;;;20.08
76007;BMP280;64699;0.000;0.000;2022-12-18T13:50:43;102738.84;;;20.10
76007;BMP280;64699;0.000;0.000;2022-12-18T13:53:19;102741.34;;;20.08
76007;BMP280;64699;0.000;0.000;2022-12-18T13:55:46;102748.84;;;20.07
76007;BMP280;64699;0.000;0.000;2022-12-18T13:58:12;102742.06;;;20.03
76007;BMP280;64699;0.000;0.000;2022-12-18T14:00:41;102738.66;;;19.94
76007;BMP280;64699;0.000;0.000;2022-12-18T14:06:03;102745.53;;;19.98
76007;BMP280;64699;0.000;0.000;2022-12-18T14:08:32;102742.75;;;19.98
76007;BMP280;64699;0.000;0.000;2022-12-18T14:10:58;102748.53;;;20.00
76007;BMP280;64699;0.000;0.000;2022-12-18T14:13:26;102759.06;;;20.01
76007;BMP280;64699;0.000;0.000;2022-12-18T14:15:53;102755.09;;;20.02
76007;BMP280;64699;0.000;0.000;2022-12-18T14:18:20;102765.63;;;20.04
76007;BMP280;64699;0.000;0.000;2022-12-18T14:20:47;102768.91;;;20.02
76007;BMP280;64699;0.000;0.000;2022-12-18T14:23:26;102768.38;;;20.04
76007;BMP280;64699;0.000;0.000;2022-12-18T14:25:52;102763.38;;;20.02
76007;BMP280;64699;0.000;0.000;2022-12-18T14:28:17;102764.88;;;20.03
76007;BMP280;64699;0.000;0.000;2022-12-18T14:30:43;102770.69;;;20.05
76007;BMP280;64699;0.000;0.000;2022-12-18T14:33:19;102774.00;;;20.09
76007;BMP280;64699;0.000;0.000;2022-12-18T14:36:00;102776.81;;;20.15
76007;BMP280;64699;0.000;0.000;2022-12-18T14:38:33;102783.91;;;20.21
76007;BMP280;64699;0.000;0.000;2022-12-18T14:41:05;102776.16;;;20.25
76007;BMP280;64699;0.000;0.000;2022-12-18T14:43:32;102782.72;;;20.28
76007;BMP280;64699;0.000;0.000;2022-12-18T14:45:58;102791.00;;;20.28
76007;BMP280;64699;0.000;0.000;2022-12-18T14:51:00;102789.47;;;20.27
76007;BMP280;64699;0.000;0.000;2022-12-18T14:53:32;102786.94;;;20.23
76007;BMP280;64699;0.000;0.000;2022-12-18T14:55:59;102784.16;;;20.23
76007;BMP280;64699;0.000;0.000;2022-12-18T14:58:25;102782.38;;;20.20
76007;BMP280;64699;0.000;0.000;2022-12-18T15:00:51;102778.38;;;20.21
76007;BMP280;64699;0.000;0.000;2022-12-18T15:03:20;102782.38;;;20.20
76007;BMP280;64699;0.000;0.000;2022-12-18T15:05:47;102786.41;;;20.19
76007;BMP280;64699;0.000;0.000;2022-12-18T15:11:01;102795.94;;;20.18
76007;BMP280;64699;0.000;0.000;2022-12-18T15:13:27;102789.63;;;20.18
76007;BMP280;64699;0.000;0.000;2022-12-18T15:15:54;102793.16;;;20.18
76007;BMP280;64699;0.000;0.000;2022-12-18T15:18:21;102798.94;;;20.20
76007;BMP280;64699;0.000;0.000;2022-12-18T15:20:49;102789.63;;;20.18
76007;BMP280;64699;0.000;0.000;2022-12-18T15:23:57;102788.88;;;20.17
76007;BMP280;64699;0.000;0.000;2022-12-18T15:26:08;102801.44;;;20.18
76007;BMP280;64699;0.000;0.000;2022-12-18T15:28:54;102795.94;;;20.18
76007;BMP280;64699;0.000;0.000;2022-12-18T15:36:18;102802.41;;;20.15
76007;BMP280;64699;0.000;0.000;2022-12-18T15:38:47;102800.88;;;20.14
76007;BMP280;64699;0.000;0.000;2022-12-18T15:41:13;102811.19;;;20.14
76007;BMP280;64699;0.000;0.000;2022-12-18T15:43:40;102807.19;;;20.15
76007;BMP280;64699;0.000;0.000;2022-12-18T15:46:08;102807.94;;;20.15
76007;BMP280;64699;0.000;0.000;2022-12-18T15:48:35;102813.47;;;20.15
76007;BMP280;64699;0.000;0.000;2022-12-18T15:51:17;102825.72;;;20.14
76007;BMP280;64699;0.000;0.000;2022-12-18T15:53:45;102830.50;;;20.14
76007;BMP280;64699;0.000;0.000;2022-12-18T15:56:12;102828.97;;;20.13
76007;BMP280;64699;0.000;0.000;2022-12-18T15:58:56;102825.94;;;20.11
76007;BMP280;64699;0.000;0.000;2022-12-18T16:01:25;102832.97;;;20.12
76007;BMP280;64699;0.000;0.000;2022-12-18T16:03:51;102827.97;;;20.10